Map

Track Data

SID SEASON NUMBER BASIN SUBBASIN NAME ISO_TIME NATURE LAT LON WMO_WIND WMO_PRES WMO_AGENCY TRACK_TYPE DIST2LAND LANDFALL IFLAG USA_AGENCY USA_ATCF_ID USA_LAT USA_LON USA_RECORD USA_STATUS USA_WIND USA_PRES USA_SSHS USA_R34_NE USA_R34_SE USA_R34_SW USA_R34_NW USA_R50_NE USA_R50_SE USA_R50_SW USA_R50_NW USA_R64_NE USA_R64_SE USA_R64_SW USA_R64_NW USA_POCI USA_ROCI USA_RMW USA_EYE TOKYO_LAT TOKYO_LON TOKYO_GRADE TOKYO_WIND TOKYO_PRES TOKYO_R50_DIR TOKYO_R50_LONG TOKYO_R50_SHORT TOKYO_R30_DIR TOKYO_R30_LONG TOKYO_R30_SHORT TOKYO_LAND CMA_LAT CMA_LON CMA_CAT CMA_WIND CMA_PRES HKO_LAT HKO_LON HKO_CAT HKO_WIND HKO_PRES NEWDELHI_LAT NEWDELHI_LON NEWDELHI_GRADE NEWDELHI_WIND NEWDELHI_PRES NEWDELHI_CI NEWDELHI_DP NEWDELHI_POCI REUNION_LAT REUNION_LON REUNION_TYPE REUNION_WIND REUNION_PRES REUNION_TNUM REUNION_CI REUNION_RMW REUNION_R34_NE REUNION_R34_SE REUNION_R34_SW REUNION_R34_NW REUNION_R50_NE REUNION_R50_SE REUNION_R50_SW REUNION_R50_NW REUNION_R64_NE REUNION_R64_SE REUNION_R64_SW REUNION_R64_NW BOM_LAT BOM_LON BOM_TYPE BOM_WIND BOM_PRES BOM_TNUM BOM_CI BOM_RMW BOM_R34_NE BOM_R34_SE BOM_R34_SW BOM_R34_NW BOM_R50_NE BOM_R50_SE BOM_R50_SW BOM_R50_NW BOM_R64_NE BOM_R64_SE BOM_R64_SW BOM_R64_NW BOM_ROCI BOM_POCI BOM_EYE BOM_POS_METHOD BOM_PRES_METHOD NADI_LAT NADI_LON NADI_CAT NADI_WIND NADI_PRES WELLINGTON_LAT WELLINGTON_LON WELLINGTON_WIND WELLINGTON_PRES DS824_LAT DS824_LON DS824_STAGE DS824_WIND DS824_PRES TD9636_LAT TD9636_LON TD9636_STAGE TD9636_WIND TD9636_PRES TD9635_LAT TD9635_LON TD9635_WIND TD9635_PRES TD9635_ROCI NEUMANN_LAT NEUMANN_LON NEUMANN_CLASS NEUMANN_WIND NEUMANN_PRES MLC_LAT MLC_LON MLC_CLASS MLC_WIND MLC_PRES USA_GUST BOM_GUST BOM_GUST_PER REUNION_GUST REUNION_GUST_PER USA_SEAHGT USA_SEARAD_NE USA_SEARAD_SE USA_SEARAD_SW USA_SEARAD_NW STORM_SPEED STORM_DIR
1977330N07169 1977 113 WP MM LUCY 1977-11-26 00:00:00 NR 7.40000 168.900 main 1985 1965 __________O___ -1 7.40000 168.900 1 8 275
1977330N07169 1977 113 WP MM LUCY 1977-11-26 03:00:00 NR 7.43322 168.520 main 1965 1960 __________P___ -1 7.43322 168.520 1 5 264
1977330N07169 1977 113 WP MM LUCY 1977-11-26 06:00:00 TS 7.34725 168.364 main 1950 1936 __O_______P___ -1 7.00000 169.000 0 19 1004 7.46300 168.153 1 4 256
1977330N07169 1977 113 WP MM LUCY 1977-11-26 09:00:00 TS 7.32421 168.085 main 1936 1927 __P_______P___ -1 7.00007 168.638 0 19 1004 7.48628 167.808 1 5 263
1977330N07169 1977 113 WP MM LUCY 1977-11-26 12:00:00 TS 7.28571 167.843 main 1923 1914 __O_______O___ -1 7.00000 168.300 0 19 1004 7.50000 167.500 1 5 261
1977330N07169 1977 113 WP MM LUCY 1977-11-26 15:00:00 TS 7.25057 167.615 main 1914 1895 __P_______P___ -1 6.99995 168.000 0 19 1004 7.50118 167.230 1 5 265
1977330N07169 1977 113 WP MM LUCY 1977-11-26 18:00:00 TS 7.24346 167.334 main 1890 1878 __O_______P___ -1 7.00000 167.700 0 19 1004 7.48691 166.968 1 6 270
1977330N07169 1977 113 WP MM LUCY 1977-11-26 21:00:00 TS 7.24582 167.026 main 1878 1866 __P_______P___ -1 7.03743 167.380 0 19 1004 7.45422 166.671 1 7 266
1977330N07169 1977 113 WP MM LUCY 1977-11-27 00:00:00 TS 7.20000 166.650 main 1866 1826 __O_______O___ -1 7.00000 167.000 0 19 1004 7.40000 166.300 1 9 256
1977330N07169 1977 113 WP MM LUCY 1977-11-27 03:00:00 TS 7.03380 166.180 main 1826 1795 __P_______P___ -1 6.74987 166.560 0 19 1004 7.31772 165.800 1 11 252
1977330N07169 1977 113 WP MM LUCY 1977-11-27 06:00:00 TS 6.85764 165.612 main 1795 1758 __O_______P___ -1 6.50000 166.000 0 19 1004 7.21528 165.225 1 12 258
1977330N07169 1977 113 WP MM LUCY 1977-11-27 09:00:00 TS 6.78385 164.950 main 1754 1724 __P_______P___ -1 6.46254 165.288 0 19 1004 7.10516 164.612 1 14 265
1977330N07169 1977 113 WP MM LUCY 1977-11-27 12:00:00 TS 6.75000 164.250 main 1724 1677 __O_______O___ -1 6.50000 164.500 0 19 1004 7.00000 164.000 1 13 266
1977330N07169 1977 113 WP MM LUCY 1977-11-27 15:00:00 TS 6.69286 163.623 main 1670 1634 __P_______P___ -1 6.48489 163.750 0 19 1004 6.90084 163.495 1 13 266
1977330N07169 1977 113 WP MM LUCY 1977-11-27 18:00:00 TS 6.65570 162.995 main 1634 1596 __O_______P___ -1 6.50000 163.000 0 19 1004 6.81140 162.990 1 13 269
1977330N07169 1977 113 WP MM LUCY 1977-11-27 21:00:00 TS 6.67059 162.348 main 1589 1538 __P_______P___ -1 6.59985 162.258 0 19 1004 6.74132 162.439 1 14 270
1977330N07169 1977 113 WP MM LUCY 1977-11-28 00:00:00 TS 6.66667 161.578 998 tokyo main 1538 1483 _OO_______O___ -1 6.40000 161.000 2 998 0 0 0 6.70000 161.500 0 19 1004 6.70000 161.800 1 16 270
1977330N07169 1977 113 WP MM LUCY 1977-11-28 03:00:00 TS 6.67902 160.780 main 1483 1430 _PP_______P___ -1 6.62746 160.495 2 998 0 0 6.70744 160.700 0 21 1003 6.67637 161.002 1 16 271
1977330N07169 1977 113 WP MM LUCY 1977-11-28 06:00:00 TS 6.70231 159.969 998 tokyo main 1430 1376 OOOO_____OP___ jtwc_wp WP201977 6.80000 160.000 TD 30 -1 6.70000 159.900 2 998 0 0 0 6.70000 159.900 1 23 1002 6.60000 159.800 TD 25 996 6.80000 160.000 TC 30 6.68309 160.117 1 16 269
1977330N07169 1977 113 WP MM LUCY 1977-11-28 09:00:00 TS 6.66052 159.153 main 1376 1317 PPPP_____PP___ WP201977 6.75531 159.142 TD 30 -1 6.53015 159.177 2 998 0 0 6.73482 159.150 1 23 1002 6.45773 159.037 TD 25 996 6.75531 159.142 TC 30 6.72318 159.199 1 16 268
1977330N07169 1977 113 WP MM LUCY 1977-11-28 12:00:00 TS 6.64762 158.357 998 tokyo main 1317 1286 OOOO_____OO___ jtwc_wp WP201977 6.80000 158.300 TD 30 -1 6.30000 158.500 2 998 0 0 0 6.80000 158.400 1 23 1002 6.40000 158.300 TD 25 996 6.80000 158.300 TC 30 6.80000 158.300 1 30 15 273
1977330N07169 1977 113 WP MM LUCY 1977-11-28 15:00:00 TS 6.75149 157.627 main 1290 1266 PPPP_____PP___ WP201977 6.98486 157.485 TD 30 -1 6.23476 158.085 2 998 0 0 6.88483 157.622 1 23 1001 6.47744 157.613 TD 25 995 6.98486 157.485 TC 30 6.94218 157.469 1 30 14 280
1977330N07169 1977 113 WP MM LUCY 1977-11-28 18:00:00 TS 6.88578 156.928 998 tokyo main 1261 1235 OOOO_____OP___ jtwc_wp WP201977 7.20000 156.700 TD 30 -1 6.20000 157.700 2 998 0 0 0 7.00000 156.800 1 23 1000 6.60000 157.000 TD 25 994 7.20000 156.700 TC 30 7.11465 156.668 1 30 14 279
1977330N07169 1977 113 WP MM LUCY 1977-11-28 21:00:00 TS 6.96575 156.212 main 1236 1205 PPPP_____PP___ WP201977 7.32991 155.927 TD 30 -1 6.06247 157.145 2 998 0 0 7.14257 155.885 1 23 1000 6.64987 156.477 TD 25 994 7.32991 155.927 TC 30 7.27979 155.909 1 30 14 276
1977330N07169 1977 113 WP MM LUCY 1977-11-29 00:00:00 TS 7.03333 155.517 998 tokyo main 1201 1184 OOOO_____OO___ jtwc_wp WP201977 7.40000 155.200 TD 30 -1 6.00000 156.500 2 998 0 0 0 7.30000 155.000 1 23 1000 6.70000 156.000 TD 25 994 7.40000 155.200 TC 30 7.40000 155.200 1 30 14 276
1977330N07169 1977 113 WP MM LUCY 1977-11-29 03:00:00 TS 7.11945 154.850 main 1184 1171 PPPP_____PP___ WP201977 7.42240 154.520 TD 30 -1 6.15499 155.808 2 998 0 0 7.47991 154.225 1 26 999 6.79995 155.500 TD 25 994 7.42240 154.520 TC 30 7.43705 154.529 1 30 13 277
1977330N07169 1977 113 WP MM LUCY 1977-11-29 06:00:00 TS 7.18741 154.235 998 tokyo main 1168 1152 OOOO_____OP___ jtwc_wp WP201977 7.40000 153.900 TD 30 -1 6.40000 155.100 2 998 0 0 0 7.60000 153.600 1 29 998 6.90000 155.000 TD 25 994 7.40000 153.900 TC 30 7.42448 153.910 1 30 12 274
1977330N07169 1977 113 WP MM LUCY 1977-11-29 09:00:00 TS 7.20943 153.685 main 1152 1138 PPPP_____PP___ WP201977 7.37243 153.320 TD 30 -1 6.59989 154.442 2 998 0 0 7.57976 153.170 1 29 998 6.95737 154.522 TD 25 995 7.37243 153.320 TC 30 7.37469 153.336 1 30 11 271
1977330N07169 1977 113 WP MM LUCY 1977-11-29 12:00:00 TS 7.20000 153.167 998 tokyo main 1138 1127 OOOO_____OO___ jtwc_wp WP201977 7.30000 152.800 TD 30 -1 6.80000 153.800 2 998 0 0 0 7.50000 152.800 1 29 998 7.00000 154.000 TD 25 996 7.30000 152.800 TC 30 7.30000 152.800 1 30 10 268
1977330N07169 1977 113 WP MM LUCY 1977-11-29 15:00:00 TS 7.16948 152.657 main 1127 1107 PPPP_____PP___ WP201977 7.14989 152.342 TD 30 -1 7.02227 153.180 2 998 0 0 7.45746 152.323 1 29 998 7.05739 153.395 TD 25 997 7.14989 152.342 TC 30 7.17996 152.358 1 30 10 266
1977330N07169 1977 113 WP MM LUCY 1977-11-29 18:00:00 TS 7.12434 152.123 998 tokyo main 1106 1100 OOOO_____OP___ jtwc_wp WP201977 7.00000 151.900 TD 30 -1 7.20000 152.500 2 998 0 0 0 7.40000 151.800 1 29 998 7.10000 152.700 TD 25 998 7.00000 151.900 TC 30 7.04605 151.939 1 30 11 265
1977330N07169 1977 113 WP MM LUCY 1977-11-29 21:00:00 TS 7.06767 151.548 main 1100 1086 PPPP_____PP___ WP201977 6.90480 151.452 TD 30 -1 7.27245 151.687 2 998 0 0 7.28487 151.280 1 29 998 7.09989 151.937 TD 25 999 6.90480 151.452 TC 30 6.93919 151.476 1 30 12 267
1977330N07169 1977 113 WP MM LUCY 1977-11-30 00:00:00 TS 7.05000 150.883 998 tokyo main 1098 1076 OOOO_____OO___ jtwc_wp WP201977 6.90000 150.900 TD 30 -1 7.30000 150.800 2 998 0 0 0 7.20000 150.700 1 29 998 7.10000 151.100 TD 25 1000 6.90000 150.900 TC 30 6.90000 150.900 1 30 14 272
1977330N07169 1977 113 WP MM LUCY 1977-11-30 03:00:00 TS 7.12481 150.116 main 1073 1063 PPPP_____PP___ WP201977 7.01989 150.175 TD 30 -1 7.35749 149.885 2 999 0 0 7.22734 150.053 1 29 999 7.14217 150.252 TD 25 1002 7.01989 150.175 TC 30 6.98208 150.159 1 30 16 277
1977330N07169 1977 113 WP MM LUCY 1977-11-30 06:00:00 TS 7.23870 149.249 1000 tokyo main 1061 1059 OOOO_____OP___ jtwc_wp WP201977 7.20000 149.300 TD 30 -1 7.40000 149.000 2 1000 0 0 0 7.30000 149.300 1 29 1000 7.20000 149.300 TD 25 1004 7.20000 149.300 TC 30 7.13217 149.295 1 30 18 277
1977330N07169 1977 113 WP MM LUCY 1977-11-30 09:00:00 TS 7.33845 148.308 main 1058 1057 PPPP_____PP___ WP201977 7.36486 148.345 TD 30 -1 7.39975 148.227 2 1000 0 0 7.35011 148.408 1 29 1001 7.23497 148.187 TD 25 1004 7.36486 148.345 TC 30 7.31614 148.333 1 30 19 276
1977330N07169 1977 113 WP MM LUCY 1977-11-30 12:00:00 TS 7.43333 147.317 1000 tokyo main 1064 1064 OOOO_____OO___ jtwc_wp WP201977 7.50000 147.300 TD 30 -1 7.40000 147.500 2 1000 0 0 0 7.40000 147.500 1 29 1002 7.30000 147.000 TD 25 1004 7.50000 147.300 TC 30 7.50000 147.300 1 30 19 275
1977330N07169 1977 113 WP MM LUCY 1977-11-30 15:00:00 TS 7.49144 146.365 main 1076 1076 PPPP_____PP___ WP201977 7.54228 146.222 TD 30 -1 7.41929 146.840 2 1000 0 0 7.41899 146.840 1 29 1002 7.44232 145.835 TD 25 1005 7.54228 146.222 TC 30 7.58350 146.230 1 30 20 274
1977330N07169 1977 113 WP MM LUCY 1977-11-30 18:00:00 TS 7.57793 145.333 1000 tokyo main 1096 1096 OOOO_____OP___ jtwc_wp WP201977 7.60000 145.100 TD 30 -1 7.50000 146.000 2 1000 0 0 0 7.50000 146.000 1 29 1002 7.60000 144.700 TD 25 1006 7.60000 145.100 TC 30 7.66758 145.100 1 30 22 276
1977330N07169 1977 113 WP MM LUCY 1977-11-30 21:00:00 TS 7.71842 144.135 main 1132 1132 PPPP_____PP___ WP201977 7.74732 143.950 TD 30 -1 7.64765 144.755 2 1000 0 0 7.72089 144.568 1 33 1001 7.65458 143.642 TD 25 1004 7.74732 143.950 TC 30 7.79278 143.945 1 30 25 279
1977330N07169 1977 113 WP MM LUCY 1977-12-01 00:00:00 TS 7.95000 142.883 1000 tokyo main 1193 1168 OOOO_____OO___ jtwc_wp WP201977 8.00000 142.800 TD 30 -1 7.90000 143.300 2 1000 0 0 0 8.00000 143.000 2 38 1000 7.80000 142.600 TD 25 1002 8.00000 142.800 TC 30 8.00000 142.800 1 30 25 283
1977330N07169 1977 113 WP MM LUCY 1977-12-01 03:00:00 TS 8.27802 141.667 main 1175 1168 PPPP_____PP___ WP201977 8.36220 141.685 TD 30 -1 8.24792 141.783 2 998 0 0 8.17442 141.732 2 38 997 8.18256 141.470 TD 27 999 8.36220 141.685 TC 30 8.33880 141.647 1 31 25 288
1977330N07169 1977 113 WP MM LUCY 1977-12-01 06:00:00 TS 8.71006 140.519 40 996 tokyo main 1180 1176 OOOO_____OP___ jtwc_wp WP201977 8.80000 140.600 TD 30 -1 8.70000 140.400 3 40 996 0 9 150 150 0 8.50000 140.600 2 38 995 8.70000 140.400 TD 30 996 8.80000 140.600 TC 30 8.76035 140.517 1 32 24 294
1977330N07169 1977 113 WP MM LUCY 1977-12-01 09:00:00 TS 9.23582 139.477 main 1189 1189 PPPP_____PP___ WP201977 9.24998 139.498 TD 32 -1 9.23423 139.387 3 42 994 0 9 150 150 9.20464 139.513 2 38 993 9.24951 139.512 TD 30 994 9.24998 139.498 TC 32 9.22661 139.453 1 33 22 299
1977330N07169 1977 113 WP MM LUCY 1977-12-01 12:00:00 TS 9.78333 138.550 45 992 tokyo main 1222 1219 OOOO_____OO___ jtwc_wp WP201977 9.70000 138.500 TS 35 0 9.80000 138.600 3 45 992 0 9 150 150 0 10.0000 138.500 2 38 992 9.80000 138.700 TD 30 992 9.70000 138.500 TC 35 9.70000 138.500 2 35 20 301
1977330N07169 1977 113 WP MM LUCY 1977-12-01 15:00:00 TS 10.2727 137.712 main 1254 1190 PPPP_____PP___ WP201977 10.0996 137.682 TS 37 0 10.3371 137.877 3 47 988 0 9 150 150 10.6399 137.483 2 43 991 10.2798 137.850 TD 32 991 10.0996 137.682 TC 37 10.1801 137.698 2 37 18 301
1977330N07169 1977 113 WP MM LUCY 1977-12-01 18:00:00 TS 10.7088 136.968 50 985 tokyo main 1190 1125 OOOO_____OP___ jtwc_wp WP201977 10.5000 137.000 TS 40 0 10.8000 137.200 4 50 985 0 9 150 150 0 11.1000 136.600 3 48 990 10.7000 137.000 TS 35 990 10.5000 137.000 TC 40 10.6528 137.008 2 40 16 301
1977330N07169 1977 113 WP MM LUCY 1977-12-01 21:00:00 TS 11.1059 136.276 main 1125 1068 PPPP_____PP___ WP201977 10.9872 136.378 TS 42 0 11.1674 136.450 4 50 985 0 9 200 200 11.3244 135.962 3 48 987 11.0951 136.098 TS 37 987 10.9872 136.378 TC 42 11.0742 136.389 2 42 15 298
1977330N07169 1977 113 WP MM LUCY 1977-12-02 00:00:00 TS 11.4000 135.633 50 985 tokyo main 1058 997 OOOO_____OO___ jtwc_wp WP201977 11.4000 135.800 TS 45 0 11.4000 135.700 4 50 985 0 9 250 250 0 11.4000 135.400 3 48 985 11.4000 135.300 TS 40 985 11.4000 135.800 TC 45 11.4000 135.800 2 45 13 289
1977330N07169 1977 113 WP MM LUCY 1977-12-02 03:00:00 TS 11.5453 134.993 main 997 936 PPPP_____PP___ WP201977 11.6174 135.200 TS 50 0 11.4650 134.962 4 52 980 0 9 250 250 11.4576 134.685 3 53 980 11.5721 134.747 TS 45 980 11.6174 135.200 TC 50 11.5427 135.165 2 50 12 280
1977330N07169 1977 113 WP MM LUCY 1977-12-02 06:00:00 TS 11.6157 134.392 55 975 tokyo main 936 887 OOOO_____OP___ jtwc_wp WP201977 11.7000 134.600 TS 55 0 11.5000 134.300 4 55 975 9 25 25 9 250 250 0 11.5000 134.000 3 58 975 11.7000 134.300 STS 50 975 11.7000 134.600 TC 55 11.5944 134.553 2 55 12 277
1977330N07169 1977 113 WP MM LUCY 1977-12-02 09:00:00 TS 11.6902 133.825 main 876 822 PPPP_____PP___ WP201977 11.6774 133.992 TS 60 0 11.6773 133.755 4 55 970 9 25 25 9 250 250 11.5848 133.455 3 58 972 11.9000 133.793 STS 52 970 11.6774 133.992 TC 60 11.6240 133.965 2 60 11 280
1977330N07169 1977 113 WP MM LUCY 1977-12-02 12:00:00 TS 11.8000 133.300 55 965 tokyo main 822 771 OOOO_____OO___ jtwc_wp WP201977 11.7000 133.400 TY 65 1 11.9000 133.300 4 55 965 9 25 25 9 250 250 0 11.7000 133.000 3 58 970 12.1000 133.300 STS 55 965 11.7000 133.400 TC 65 11.7000 133.400 4 65 10 288
1977330N07169 1977 113 WP MM LUCY 1977-12-02 15:00:00 TS 12.0053 132.807 main 771 731 PPPP_____PP___ WP201977 11.9624 132.835 TY 72 1 12.0923 132.907 4 57 960 9 25 25 9 250 250 11.8274 132.585 3 63 960 12.2498 132.850 STS 57 957 11.9624 132.835 TC 72 11.9376 132.830 4 72 11 296
1977330N07169 1977 113 WP MM LUCY 1977-12-02 18:00:00 TS 12.2545 132.331 60 955 tokyo main 723 685 OOOO_____OP___ jtwc_wp WP201977 12.3000 132.300 TY 80 1 12.3000 132.500 4 60 955 9 25 25 9 250 250 0 12.0000 132.200 4 68 950 12.4000 132.400 STS 60 950 12.3000 132.300 TC 80 12.2273 132.283 4 80 11 298
1977330N07169 1977 113 WP MM LUCY 1977-12-02 21:00:00 TS 12.5109 131.833 main 674 638 PPPP_____PP___ WP201977 12.5724 131.777 TY 87 2 12.5576 131.958 4 67 950 9 50 50 9 250 250 12.2349 131.815 4 72 947 12.6000 131.900 STS 72 945 12.5724 131.777 TC 87 12.5283 131.770 4 87 11 297
1977330N07169 1977 113 WP MM LUCY 1977-12-03 00:00:00 TS 12.7500 131.350 75 945 tokyo main 631 591 OOOO_____OO___ jtwc_wp WP201977 12.8000 131.300 TY 95 2 12.8000 131.400 5 75 945 9 75 75 9 250 250 0 12.5000 131.400 4 77 945 12.8000 131.400 ST 85 940 12.8000 131.300 TC 95 12.8000 131.300 4 95 10 294
1977330N07169 1977 113 WP MM LUCY 1977-12-03 03:00:00 TS 12.9275 130.892 main 591 552 PPPP_____PP___ WP201977 12.9649 130.877 TY 100 3 12.9574 130.920 5 82 936 9 87 87 9 275 275 12.7501 130.893 4 91 935 12.9500 130.920 ST 90 935 12.9649 130.877 TC 100 12.9774 130.865 4 98 9 292
1977330N07169 1977 113 WP MM LUCY 1977-12-03 06:00:00 TS 13.0870 130.479 90 927 tokyo main 552 514 OOOO_____OP___ jtwc_wp WP201977 13.1000 130.500 TY 105 3 13.1000 130.500 5 90 927 9 100 100 9 300 300 0 13.0000 130.400 6 106 925 13.1000 130.500 ST 95 930 13.1000 130.500 TC 105 13.1221 130.474 4 102 8 294
1977330N07169 1977 113 WP MM LUCY 1977-12-03 09:00:00 TS 13.2638 130.119 main 514 485 PPPP_____PP___ WP201977 13.2499 130.135 TY 107 3 13.2849 130.127 5 90 923 9 100 100 9 300 300 13.2574 130.020 6 106 922 13.2849 130.177 ST 97 925 13.2499 130.135 TC 107 13.2557 130.121 4 106 8 299
1977330N07169 1977 113 WP MM LUCY 1977-12-03 12:00:00 TS 13.4500 129.800 90 920 tokyo main 488 461 OOOO_____OO___ jtwc_wp WP201977 13.4000 129.800 TY 110 3 13.5000 129.800 5 90 920 9 100 100 9 300 300 0 13.5000 129.700 6 106 920 13.5000 129.900 SuperT 100 920 13.4000 129.800 TC 110 13.4000 129.800 4 110 7 300
1977330N07169 1977 113 WP MM LUCY 1977-12-03 15:00:00 TS 13.6255 129.480 main 461 439 PPPP_____PP___ WP201977 13.5350 129.485 TY 112 3 13.7425 129.477 5 100 920 9 110 110 9 325 325 13.6850 129.377 6 111 918 13.7350 129.600 SuperT 100 922 13.5350 129.485 TC 112 13.5206 129.455 4 111 7 303
1977330N07169 1977 113 WP MM LUCY 1977-12-03 18:00:00 TS 13.8275 129.191 110 920 tokyo main 439 419 OOOO_____OP___ jtwc_wp WP201977 13.7000 129.200 TY 115 4 14.0000 129.200 5 110 920 9 120 120 9 350 350 0 13.9000 129.100 6 116 917 14.0000 129.300 SuperT 100 925 13.7000 129.200 TC 115 13.6651 129.145 4 112 7 309
1977330N07169 1977 113 WP MM LUCY 1977-12-03 21:00:00 TS 14.0624 128.924 main 425 418 PPPP_____PP___ WP201977 13.8900 128.920 TY 115 4 14.2200 128.977 5 110 922 9 122 122 9 350 350 14.2200 128.870 6 116 918 14.2775 128.970 SuperT 97 927 13.8900 128.920 TC 115 13.8769 128.887 4 113 7 320
1977330N07169 1977 113 WP MM LUCY 1977-12-04 00:00:00 TS 14.3833 128.717 110 925 tokyo main 425 422 OOOO_____OO___ jtwc_wp WP201977 14.2000 128.700 TY 115 4 14.5000 128.800 5 110 925 9 125 125 9 350 350 0 14.6000 128.700 6 116 920 14.6000 128.700 ST 95 930 14.2000 128.700 TC 115 14.2000 128.700 4 115 8 335
1977330N07169 1977 113 WP MM LUCY 1977-12-04 03:00:00 TS 14.8121 128.562 main 444 443 PPPP_____PP___ WP201977 14.6900 128.555 TY 112 3 14.8900 128.613 5 100 927 9 125 125 9 325 325 14.9625 128.563 6 106 925 14.9474 128.540 ST 95 930 14.6900 128.555 TC 112 14.6928 128.547 4 112 10 348
1977330N07169 1977 113 WP MM LUCY 1977-12-04 06:00:00 TS 15.3491 128.495 90 930 tokyo main 468 468 OOOO_____OP___ jtwc_wp WP201977 15.3000 128.500 TY 110 3 15.4000 128.500 5 90 930 9 125 125 9 300 300 0 15.4000 128.500 5 97 930 15.4000 128.500 ST 95 930 15.3000 128.500 TC 110 15.2946 128.471 4 110 12 357
1977330N07169 1977 113 WP MM LUCY 1977-12-04 09:00:00 TS 15.9752 128.508 main 499 499 PPPP_____PP___ WP201977 15.9500 128.505 TY 107 3 16.0275 128.505 5 90 932 9 125 125 9 300 300 15.9550 128.498 5 97 935 16.0200 128.548 ST 92 935 15.9500 128.505 TC 107 15.9491 128.485 4 107 13 5
1977330N07169 1977 113 WP MM LUCY 1977-12-04 12:00:00 TS 16.6333 128.617 90 935 tokyo main 542 542 OOOO_____OO___ jtwc_wp WP201977 16.6000 128.600 TY 105 3 16.7000 128.600 5 90 935 9 125 125 9 300 300 0 16.6000 128.600 5 97 940 16.7000 128.700 ST 90 940 16.6000 128.600 TC 105 16.6000 128.600 4 105 13 11
1977330N07169 1977 113 WP MM LUCY 1977-12-04 15:00:00 TS 17.2369 128.773 main 598 598 PPPP_____PP___ WP201977 17.1649 128.740 TY 105 3 17.3223 128.683 5 90 937 9 125 125 9 300 300 17.3149 128.797 5 92 940 17.3149 128.905 ST 90 940 17.1649 128.740 TC 105 17.1395 128.773 4 103 13 19
1977330N07169 1977 113 WP MM LUCY 1977-12-04 18:00:00 TS 17.8115 129.042 90 940 tokyo main 657 657 OOOO_____OP___ jtwc_wp WP201977 17.7000 129.000 TY 105 3 17.9000 128.900 5 90 940 9 125 125 9 300 300 0 18.0000 129.100 5 87 940 17.9000 129.200 ST 90 940 17.7000 129.000 TC 105 17.6692 129.050 4 102 13 30
1977330N07169 1977 113 WP MM LUCY 1977-12-04 21:00:00 TS 18.3415 129.430 main 726 726 PPPP_____PP___ WP201977 18.2199 129.391 TY 102 3 18.4076 129.340 5 90 940 9 112 112 9 300 300 18.5300 129.470 5 87 942 18.4574 129.563 ST 90 942 18.2199 129.391 TC 102 18.2142 129.427 4 101 14 38
1977330N07169 1977 113 WP MM LUCY 1977-12-05 00:00:00 TS 18.8833 129.917 90 940 tokyo main 802 802 OOOO_____OO___ jtwc_wp WP201977 18.8000 129.900 TY 100 3 18.9000 129.900 5 90 940 9 100 100 9 300 300 0 19.0000 129.900 5 87 945 19.0000 130.000 ST 90 945 18.8000 129.900 TC 100 18.8000 129.900 4 100 15 39
1977330N07169 1977 113 WP MM LUCY 1977-12-05 03:00:00 TS 19.5178 130.420 main 860 860 PPPP_____PP___ WP201977 19.5349 130.463 TY 95 2 19.4720 130.405 5 90 945 9 100 100 9 300 300 19.4770 130.298 5 87 945 19.5423 130.470 ST 85 947 19.5349 130.463 TC 95 19.5458 130.421 4 95 17 39
1977330N07169 1977 113 WP MM LUCY 1977-12-05 06:00:00 TS 20.1699 131.006 90 950 tokyo main 934 934 OOOO_____OP___ jtwc_wp WP201977 20.3000 131.100 TY 90 2 20.0000 131.000 5 90 950 9 100 100 9 300 300 0 20.0000 130.800 5 87 945 20.1000 131.000 T 80 950 20.3000 131.100 TC 90 20.3192 131.038 4 90 18 42
1977330N07169 1977 113 WP MM LUCY 1977-12-05 09:00:00 TS 20.8157 131.680 main 1020 1020 PPPP_____PP___ WP201977 21.0247 131.770 TY 85 2 20.3876 131.763 5 87 952 9 112 112 9 300 300 20.6951 131.496 5 82 947 20.7295 131.548 T 75 955 21.0247 131.770 TC 85 21.0330 131.736 4 85 18 49
1977330N07169 1977 113 WP MM LUCY 1977-12-05 12:00:00 TS 21.3500 132.433 85 955 tokyo main 1085 1065 OOOO_____OO___ jtwc_wp WP201977 21.6000 132.500 TY 80 1 20.7000 132.600 5 85 955 9 125 125 9 300 300 0 21.3000 132.300 4 77 950 21.3000 132.200 T 70 960 21.6000 132.500 TC 80 21.6000 132.500 4 80 17 59
1977330N07169 1977 113 WP MM LUCY 1977-12-05 15:00:00 TS 21.6859 133.209 main 1068 1061 PPPP_____PP___ WP201977 21.9396 133.271 TY 75 1 21.0069 133.386 5 82 960 9 112 112 9 275 275 21.5744 133.071 4 77 952 21.7323 132.997 T 67 965 21.9396 133.271 TC 75 21.9228 133.259 4 76 16 70
1977330N07169 1977 113 WP MM LUCY 1977-12-05 18:00:00 TS 21.8821 134.046 80 965 tokyo main 1067 1067 OOOO_____OP___ jtwc_wp WP201977 22.1000 134.100 TY 70 1 21.3000 134.200 5 80 965 9 100 100 9 250 250 0 21.7000 133.900 4 77 955 22.0000 133.900 T 65 970 22.1000 134.100 TC 70 22.0924 134.077 4 72 16 78
1977330N07169 1977 113 WP MM LUCY 1977-12-05 21:00:00 TS 22.0114 134.932 main 1088 1088 PPPP_____PP___ WP201977 22.1793 134.963 TY 67 1 21.5996 135.078 5 80 970 9 100 100 9 250 250 21.8498 134.828 4 72 962 22.0941 134.806 T 65 975 22.1793 134.963 TC 67 22.1659 134.956 4 68 17 83
1977330N07169 1977 113 WP MM LUCY 1977-12-06 00:00:00 TS 22.1000 135.883 80 975 tokyo main 1119 1119 OOOO_____OO___ jtwc_wp WP201977 22.2000 135.900 TY 65 1 21.9000 136.000 5 80 975 9 100 100 9 250 250 0 22.0000 135.800 4 68 970 22.1000 135.800 T 65 980 22.2000 135.900 TC 65 22.2000 135.900 4 65 18 83
1977330N07169 1977 113 WP MM LUCY 1977-12-06 03:00:00 TS 22.2333 136.881 main 1159 1159 PPPP_____PP___ WP201977 22.2496 136.920 TY 62 0 22.2440 136.912 5 75 977 9 87 87 9 225 225 22.2286 136.704 4 63 977 22.1499 136.928 T 65 980 22.2496 136.920 TC 62 22.2780 136.899 4 62 19 83
1977330N07169 1977 113 WP MM LUCY 1977-12-06 06:00:00 TS 22.3381 137.944 70 980 tokyo main 1202 1202 OOOO_____OP___ jtwc_wp WP201977 22.3000 138.000 TS 60 0 22.5000 137.900 5 70 980 9 75 75 9 200 200 0 22.4000 137.700 3 58 985 22.2000 138.100 T 65 980 22.3000 138.000 TC 60 22.3287 137.962 4 60 20 86
1977330N07169 1977 113 WP MM LUCY 1977-12-06 09:00:00 TS 22.3679 139.061 main 1260 1260 PPPP_____PP___ WP201977 22.3493 139.085 TS 57 0 22.5221 139.014 5 70 982 9 75 75 9 200 200 22.3727 138.914 3 58 987 22.2490 139.200 T 65 982 22.3493 139.085 TC 57 22.3650 139.068 4 57 21 89
1977330N07169 1977 113 WP MM LUCY 1977-12-06 12:00:00 TS 22.3833 140.217 70 985 tokyo main 1301 1301 OOOO_____OO___ jtwc_wp WP201977 22.4000 140.200 TS 55 0 22.5000 140.200 5 70 985 9 75 75 9 200 200 0 22.3000 140.200 3 58 990 22.3000 140.300 T 65 985 22.4000 140.200 TC 55 22.4000 140.200 2 55 21 88
1977330N07169 1977 113 WP MM LUCY 1977-12-06 15:00:00 TS 22.4533 141.378 main 1334 1334 PPPP_____PP___ WP201977 22.4493 141.343 TS 55 0 22.6496 141.407 5 62 987 9 50 50 9 175 175 22.3416 141.414 3 53 990 22.3495 141.450 T 62 987 22.4493 141.343 TC 55 22.4801 141.315 2 55 22 86
1977330N07169 1977 113 WP MM LUCY 1977-12-06 18:00:00 TS 22.5261 142.542 55 990 tokyo main 1382 1382 OOOO_____OP___ jtwc_wp WP201977 22.5000 142.500 TS 55 0 22.8000 142.600 4 55 990 9 25 25 9 150 150 0 22.4000 142.600 3 48 990 22.4000 142.600 STS 60 990 22.5000 142.500 TC 55 22.5566 142.453 2 55 21 87
1977330N07169 1977 113 WP MM LUCY 1977-12-06 21:00:00 TS 22.5721 143.684 main 1421 1421 PPPP_____PP___ WP201977 22.5640 143.642 TS 55 0 22.8441 143.723 4 50 992 9 9 137 137 22.3993 143.773 3 48 992 22.4566 143.707 STS 57 992 22.5640 143.642 TC 55 22.6048 143.614 2 55 21 88
1977330N07169 1977 113 WP MM LUCY 1977-12-07 00:00:00 TS 22.5833 144.817 45 995 tokyo main 1452 1452 OOOO_____OO___ jtwc_wp WP201977 22.6000 144.800 TS 55 0 22.8000 144.800 3 45 995 0 9 125 125 0 22.4000 144.900 3 48 995 22.5000 144.800 STS 55 995 22.6000 144.800 TC 55 22.6000 144.800 2 55 21 91
1977330N07169 1977 113 WP MM LUCY 1977-12-07 03:00:00 TS 22.5528 145.943 main 1491 1491 PPPP_____PP___ WP201977 22.5941 145.985 TS 52 0 22.6493 145.866 3 45 995 0 9 137 137 22.4482 145.927 3 43 995 22.5064 145.885 STS 50 996 22.5941 145.985 TC 52 22.5244 146.008 2 51 21 93
1977330N07169 1977 113 WP MM LUCY 1977-12-07 06:00:00 TS 22.4854 147.082 45 995 tokyo main 1550 1550 OOOO_____OP___ jtwc_wp WP201977 22.5000 147.200 TS 50 0 22.5000 146.900 3 45 995 0 9 150 150 0 22.5000 147.000 2 38 995 22.5000 147.000 TS 45 998 22.5000 147.200 TC 50 22.3878 147.232 2 47 21 94
1977330N07169 1977 113 WP MM LUCY 1977-12-07 09:00:00 TS 22.4033 148.251 main 1616 1616 PPPP_____PP___ WP201977 22.2929 148.390 TS 45 0 22.4845 147.922 3 45 995 0 9 150 150 22.5301 148.277 2 38 995 22.5141 148.170 TS 42 998 22.2929 148.390 TC 45 22.2072 148.465 2 43 22 95
1977330N07169 1977 113 WP MM LUCY 1977-12-07 12:00:00 TS 22.3056 149.450 45 996 tokyo main 1687 1687 OOOO_____OO___ jtwc_wp WP201977 22.0000 149.700 TS 40 0 22.5000 148.900 3 45 996 0 9 150 150 0 22.5000 149.600 2 38 996 22.5000 149.400 TS 40 998 22.0000 149.700 TC 40 22.0000 149.700 2 40 22 95
1977330N07169 1977 113 WP MM LUCY 1977-12-07 15:00:00 TS 22.1923 150.627 main 1756 1756 PPPP_____P____ WP201977 21.6642 151.234 TS 40 0 22.4341 149.808 3 45 996 0 9 150 150 22.3636 150.808 2 38 996 22.4222 150.686 TS 37 999 21.6642 151.234 TC 40 2 21 95
1977330N07169 1977 113 WP MM LUCY 1977-12-07 18:00:00 TS 22.1182 151.691 45 996 tokyo main 1827 1827 OOOO_____O____ jtwc_wp WP201977 21.3000 152.900 TD 40 0 22.4000 150.700 3 45 996 0 9 150 150 0 22.2000 152.000 2 38 996 22.3000 152.000 TS 35 1000 21.3000 152.900 TC 40 2 17 88
1977330N07169 1977 113 WP MM LUCY 1977-12-07 21:00:00 TS 22.2662 152.469 main 1857 1857 _PP___________ WP201977 TD -1 22.4621 151.643 3 45 996 0 9 137 137 22.0703 153.295 2 33 997 TS TC 2 17 84
1977330N07169 1977 113 WP MM LUCY 1977-12-08 00:00:00 TS 22.3000 153.550 45 996 tokyo main 1926 1926 _OO___________ -1 22.6000 152.600 3 45 996 0 9 125 125 0 22.0000 154.500 1 29 998 19 87
1977330N07169 1977 113 WP MM LUCY 1977-12-08 03:00:00 TS 22.3644 154.524 main 1976 1976 _PP___________ -1 22.7401 153.588 3 45 996 0 9 125 125 21.9887 155.460 1 29 999 17 82
1977330N07169 1977 113 WP MM LUCY 1977-12-08 06:00:00 TS 22.5500 155.400 45 996 tokyo main 2021 2021 _OO___________ -1 23.0000 154.500 3 45 996 0 9 125 125 0 22.1000 156.300 1 29 1000 17 71
1977330N07169 1977 113 WP MM LUCY 1977-12-08 09:00:00 TS 22.9008 156.216 main 2053 2051 _PP___________ -1 23.4544 155.260 3 42 998 0 9 125 125 22.3472 157.172 1 29 1000 16 61
1977330N07169 1977 113 WP MM LUCY 1977-12-08 12:00:00 TS 23.3500 156.950 40 1000 tokyo main 2069 2069 _OO___________ -1 24.0000 155.900 3 40 1000 0 9 125 125 0 22.7000 158.000 1 29 1000 16 58
1977330N07169 1977 113 WP MM LUCY 1977-12-08 15:00:00 TS 23.7287 157.657 main 2096 2073 _PP___________ -1 24.4995 156.473 3 40 1000 0 9 125 125 22.9578 158.841 1 26 1001 14 46
1977330N07169 1977 113 WP MM LUCY 1977-12-08 18:00:00 TS 24.3571 158.071 40 1000 tokyo main 2073 2023 _OO___________ -1 25.0000 157.000 3 40 1000 0 9 125 125 0 23.5000 159.500 1 23 1002 16 19
1977330N07169 1977 113 WP MM LUCY 1977-12-08 21:00:00 TS 25.2184 158.236 main 2023 1990 _PP___________ -1 25.5353 157.431 3 1002 0 9 24.5847 159.845 1 23 1002 17 13
1977330N07169 1977 113 WP MM LUCY 1977-12-09 00:00:00 MX 26.0000 158.480 1004 tokyo main 1991 1984 _OO___________ -1 26.0000 158.100 6 1004 0 0 0 26.0000 160.000 1 23 1002 14 39
1977330N07169 1977 113 WP MM LUCY 1977-12-09 03:00:00 ET 26.2610 159.184 main 2027 2027 _P____________ -1 26.2610 159.184 6 1004 0 0 1 21 76
1977330N07169 1977 113 WP MM LUCY 1977-12-09 06:00:00 ET 26.5000 160.800 1004 tokyo main 2146 2146 _O____________ -1 26.5000 160.800 6 1004 0 0 0 35 80
1977330N07169 1977 113 WP MM LUCY 1977-12-09 09:00:00 ET 26.8691 162.984 main 2307 2307 _P____________ -1 26.8691 162.984 6 1004 0 0 43 79
1977330N07169 1977 113 WP MM LUCY 1977-12-09 12:00:00 ET 27.3000 165.500 1004 tokyo main 2468 _O____________ -1 27.3000 165.500 6 1004 0 0 0 46 79

Digital Typhoon Data and Search

About IBTrACS Database

This database is a web-friendly format of International Best Track Archive for Climate Stewardship (IBTrACS), a global best track data archive curated by NOAA dating back to 1842.

Updated: 2021-12-03